createdAt,value
2018-11-06T00:00:26.931Z,11.20
2018-11-06T00:01:29.152Z,11.20
2018-11-06T00:02:31.354Z,11.20
2018-11-06T00:03:39.149Z,11.20
2018-11-06T00:04:47.041Z,11.20
2018-11-06T00:05:49.208Z,11.20
2018-11-06T00:06:51.404Z,11.20
2018-11-06T00:07:53.665Z,11.20
2018-11-06T00:08:55.871Z,11.20
2018-11-06T00:09:58.037Z,11.20
2018-11-06T00:11:00.253Z,11.20
2018-11-06T00:12:02.464Z,11.10
2018-11-06T00:13:04.831Z,11.10
2018-11-06T00:14:07.014Z,11.10
2018-11-06T00:15:09.636Z,11.10
2018-11-06T00:16:12.822Z,11.10
2018-11-06T00:17:14.978Z,11.10
2018-11-06T00:18:17.154Z,11.10
2018-11-06T00:19:19.381Z,11.10
2018-11-06T00:20:21.545Z,11.10
2018-11-06T00:21:23.756Z,11.00
2018-11-06T00:22:25.957Z,11.00
2018-11-06T00:23:28.169Z,11.00
2018-11-06T00:24:30.344Z,11.00
2018-11-06T00:25:32.548Z,11.00
2018-11-06T00:26:34.739Z,11.00
2018-11-06T00:27:37.018Z,11.00
2018-11-06T00:28:39.190Z,11.00
2018-11-06T00:29:41.376Z,11.00
2018-11-06T00:30:43.560Z,11.00
2018-11-06T00:31:45.813Z,10.90
2018-11-06T00:32:48.270Z,10.90
2018-11-06T00:33:50.446Z,11.00
2018-11-06T00:34:52.652Z,10.90
2018-11-06T00:35:54.853Z,10.90
2018-11-06T00:36:57.132Z,10.90
2018-11-06T00:37:59.324Z,10.90
2018-11-06T00:39:01.547Z,11.00
2018-11-06T00:40:03.934Z,10.90
2018-11-06T00:41:06.133Z,10.80
2018-11-06T00:42:08.326Z,10.90
2018-11-06T00:43:10.536Z,10.90
2018-11-06T00:44:12.740Z,10.90
2018-11-06T00:45:15.822Z,10.90
2018-11-06T00:46:18.090Z,10.90
2018-11-06T00:47:20.276Z,10.90
2018-11-06T00:48:22.454Z,10.90
2018-11-06T00:49:24.641Z,10.80
2018-11-06T00:50:26.821Z,10.90
2018-11-06T00:51:29.040Z,10.80
2018-11-06T00:52:31.253Z,10.80
2018-11-06T00:53:33.443Z,10.80
2018-11-06T00:54:35.617Z,10.80
2018-11-06T00:55:37.794Z,10.80
2018-11-06T00:56:40.018Z,10.80
2018-11-06T00:57:43.218Z,10.80
2018-11-06T00:58:45.398Z,10.80
2018-11-06T00:59:47.621Z,10.80
2018-11-06T01:00:49.809Z,10.80
2018-11-06T01:01:52.000Z,10.80
2018-11-06T01:02:54.355Z,10.70
2018-11-06T01:04:02.190Z,10.70
2018-11-06T01:05:05.249Z,10.70
2018-11-06T01:06:07.481Z,10.70
2018-11-06T01:07:09.736Z,10.70
2018-11-06T01:08:11.972Z,10.70
2018-11-06T01:09:14.890Z,10.70
2018-11-06T01:10:17.119Z,10.70
2018-11-06T01:11:19.314Z,10.70
2018-11-06T01:12:21.504Z,10.70
2018-11-06T01:13:23.685Z,10.70
2018-11-06T01:14:25.875Z,10.80
2018-11-06T01:15:28.072Z,10.70
2018-11-06T01:16:30.237Z,10.70
2018-11-06T01:17:32.431Z,10.70
2018-11-06T01:18:34.593Z,10.70
2018-11-06T01:19:36.736Z,10.70
2018-11-06T01:20:38.928Z,10.80
2018-11-06T01:21:41.122Z,10.80
2018-11-06T01:22:43.554Z,10.80
2018-11-06T01:23:45.726Z,10.80
2018-11-06T01:24:47.913Z,10.80
2018-11-06T01:25:50.073Z,10.80
2018-11-06T01:26:52.282Z,10.80
2018-11-06T01:27:54.486Z,10.80
2018-11-06T01:28:56.670Z,10.80
2018-11-06T01:29:58.956Z,10.80
2018-11-06T01:31:01.178Z,10.80
2018-11-06T01:32:03.637Z,10.80
2018-11-06T01:33:05.827Z,10.80
2018-11-06T01:34:08.153Z,10.80
2018-11-06T01:35:11.607Z,10.80
2018-11-06T01:36:13.792Z,10.80
2018-11-06T01:37:16.323Z,10.80
2018-11-06T01:38:18.496Z,10.80
2018-11-06T01:39:20.671Z,10.80
2018-11-06T01:40:22.866Z,10.80
2018-11-06T01:41:25.046Z,10.80
2018-11-06T01:42:27.241Z,10.80
2018-11-06T01:43:29.465Z,10.80
2018-11-06T01:44:31.662Z,10.80
2018-11-06T01:45:33.877Z,10.80
2018-11-06T01:46:36.258Z,10.80
2018-11-06T01:47:38.720Z,10.80
2018-11-06T01:48:40.915Z,10.80
2018-11-06T01:49:43.121Z,10.80
2018-11-06T01:50:45.915Z,10.80
2018-11-06T01:51:48.122Z,10.70
2018-11-06T01:52:50.349Z,10.80
2018-11-06T01:53:52.551Z,10.80
2018-11-06T01:54:54.729Z,10.70
2018-11-06T01:55:57.454Z,10.70
2018-11-06T01:56:59.636Z,10.70
2018-11-06T01:58:01.821Z,10.70
2018-11-06T01:59:04.175Z,10.60
2018-11-06T02:00:11.006Z,10.60
2018-11-06T02:01:13.196Z,10.60
2018-11-06T02:02:15.416Z,10.50
2018-11-06T02:03:17.604Z,10.50
2018-11-06T02:04:19.784Z,10.50
2018-11-06T02:05:21.989Z,10.50
2018-11-06T02:06:24.169Z,10.50
2018-11-06T02:07:26.393Z,10.40
2018-11-06T02:08:28.587Z,10.40
2018-11-06T02:09:30.803Z,10.30
2018-11-06T02:10:33.013Z,10.30
2018-11-06T02:11:35.219Z,10.20
2018-11-06T02:12:37.401Z,10.20
2018-11-06T02:13:39.588Z,10.30
2018-11-06T02:14:41.822Z,10.20
2018-11-06T02:15:44.009Z,10.20
2018-11-06T02:16:46.217Z,10.30
2018-11-06T02:17:48.425Z,10.30
2018-11-06T02:18:50.642Z,10.20
2018-11-06T02:19:53.065Z,10.30
2018-11-06T02:20:55.257Z,10.20
2018-11-06T02:21:57.472Z,10.20
2018-11-06T02:23:00.210Z,10.20
2018-11-06T02:24:02.813Z,10.20
2018-11-06T02:25:12.650Z,10.10
2018-11-06T02:26:15.370Z,10.10
2018-11-06T02:27:17.548Z,10.10
2018-11-06T02:28:19.730Z,10.10
2018-11-06T02:29:28.781Z,10.10
2018-11-06T02:30:30.979Z,10.00
2018-11-06T02:31:33.165Z,10.00
2018-11-06T02:32:35.498Z,10.00
2018-11-06T02:33:37.613Z,10.00
2018-11-06T02:34:40.320Z,10.00
2018-11-06T02:35:43.361Z,10.00
2018-11-06T02:36:45.538Z,10.00
2018-11-06T02:37:47.744Z,10.10
2018-11-06T02:38:50.046Z,10.10
2018-11-06T02:39:52.250Z,10.10
2018-11-06T02:40:54.456Z,10.10
2018-11-06T02:41:56.657Z,10.10
2018-11-06T02:42:58.833Z,10.20
2018-11-06T02:44:01.512Z,10.10
2018-11-06T02:45:03.749Z,10.10
2018-11-06T02:46:05.999Z,10.10
2018-11-06T02:47:08.495Z,10.10
2018-11-06T02:48:10.748Z,10.10
2018-11-06T02:49:13.477Z,10.10
2018-11-06T02:50:15.717Z,10.20
2018-11-06T02:51:17.918Z,10.20
2018-11-06T02:52:20.105Z,10.20
2018-11-06T02:53:22.353Z,10.20
2018-11-06T02:54:24.526Z,10.20
2018-11-06T02:55:26.745Z,10.10
2018-11-06T02:56:28.919Z,10.10
2018-11-06T02:57:31.126Z,10.10
2018-11-06T02:58:33.316Z,10.10
2018-11-06T02:59:35.499Z,10.00
2018-11-06T03:00:37.808Z,10.10
2018-11-06T03:01:40.061Z,10.00
2018-11-06T03:02:42.724Z,10.10
2018-11-06T03:03:44.933Z,10.10
2018-11-06T03:04:47.104Z,10.10
2018-11-06T03:05:49.345Z,10.10
2018-11-06T03:06:51.532Z,10.20
2018-11-06T03:07:53.737Z,10.20
2018-11-06T03:08:55.934Z,10.00
2018-11-06T03:09:58.113Z,10.10
2018-11-06T03:11:00.298Z,10.10
2018-11-06T03:12:02.492Z,10.10
2018-11-06T03:13:05.258Z,10.10
2018-11-06T03:14:07.445Z,10.10
2018-11-06T03:15:10.754Z,10.10
2018-11-06T03:16:12.917Z,10.10
2018-11-06T03:17:15.113Z,10.20
2018-11-06T03:18:17.265Z,10.20
2018-11-06T03:19:19.427Z,10.20
2018-11-06T03:20:21.635Z,10.20
2018-11-06T03:21:23.784Z,10.20
2018-11-06T03:22:25.951Z,10.20
2018-11-06T03:23:28.121Z,10.20
2018-11-06T03:24:31.300Z,10.20
2018-11-06T03:25:33.442Z,10.20
2018-11-06T03:26:35.581Z,10.20
2018-11-06T03:27:37.798Z,10.20
2018-11-06T03:28:39.984Z,10.20
2018-11-06T03:29:42.505Z,10.20
2018-11-06T03:30:44.668Z,10.20
2018-11-06T03:31:47.215Z,10.20
2018-11-06T03:32:49.341Z,10.20
2018-11-06T03:33:51.576Z,10.20
2018-11-06T03:34:53.783Z,10.20
2018-11-06T03:35:55.942Z,10.10
2018-11-06T03:36:58.147Z,10.10
2018-11-06T03:38:00.364Z,10.00
2018-11-06T03:39:04.552Z,10.00
2018-11-06T03:40:07.529Z,10.00
2018-11-06T03:41:09.836Z,10.00
2018-11-06T03:42:11.998Z,10.00
2018-11-06T03:43:14.333Z,10.00
2018-11-06T03:44:16.607Z,10.00
2018-11-06T03:45:18.858Z,10.00
2018-11-06T03:46:21.069Z,10.00
2018-11-06T03:47:23.292Z,10.00
2018-11-06T03:48:25.561Z,10.00
2018-11-06T03:49:27.821Z,10.00
2018-11-06T03:50:30.022Z,10.00
2018-11-06T03:51:32.237Z,10.00
2018-11-06T03:52:34.447Z,10.00
2018-11-06T03:53:36.793Z,10.00
2018-11-06T03:54:38.962Z,10.00
2018-11-06T03:55:41.849Z,10.00
2018-11-06T03:56:44.002Z,10.10
2018-11-06T03:57:46.211Z,10.00
2018-11-06T03:58:48.432Z,10.00
2018-11-06T03:59:50.629Z,10.00
2018-11-06T04:00:52.826Z,10.00
2018-11-06T04:01:55.044Z,10.00
2018-11-06T04:02:57.245Z,10.00
2018-11-06T04:03:59.446Z,10.00
2018-11-06T04:05:01.637Z,10.00
2018-11-06T04:06:03.993Z,10.00
2018-11-06T04:07:06.226Z,10.00
2018-11-06T04:08:08.400Z,10.00
2018-11-06T04:09:11.868Z,10.00
2018-11-06T04:10:14.089Z,10.00
2018-11-06T04:11:16.313Z,10.00
2018-11-06T04:12:18.552Z,10.00
2018-11-06T04:13:20.777Z,10.10
2018-11-06T04:14:22.973Z,10.00
2018-11-06T04:15:25.233Z,10.00
2018-11-06T04:16:27.520Z,10.00
2018-11-06T04:17:29.737Z,10.00
2018-11-06T04:18:31.913Z,10.00
2018-11-06T04:19:34.121Z,9.90
2018-11-06T04:20:36.334Z,9.80
2018-11-06T04:21:39.539Z,9.70
2018-11-06T04:22:41.988Z,9.60
2018-11-06T04:23:44.200Z,9.50
2018-11-06T04:24:46.374Z,9.50
2018-11-06T04:25:48.580Z,9.50
2018-11-06T04:26:50.809Z,9.50
2018-11-06T04:27:52.991Z,9.50
2018-11-06T04:28:55.158Z,9.50
2018-11-06T04:29:57.342Z,9.50
2018-11-06T04:30:59.603Z,9.50
2018-11-06T04:32:01.820Z,9.50
2018-11-06T04:33:04.069Z,9.60
2018-11-06T04:34:06.736Z,9.60
2018-11-06T04:35:09.430Z,9.60
2018-11-06T04:36:11.590Z,9.50
2018-11-06T04:37:13.819Z,9.60
2018-11-06T04:38:16.046Z,9.50
2018-11-06T04:39:18.274Z,9.60
2018-11-06T04:40:20.505Z,9.60
2018-11-06T04:41:22.867Z,9.60
2018-11-06T04:42:25.525Z,9.60
2018-11-06T04:43:28.094Z,9.70
2018-11-06T04:44:30.337Z,9.70
2018-11-06T04:45:32.533Z,9.70
2018-11-06T04:46:34.806Z,9.70
2018-11-06T04:47:37.048Z,9.70
2018-11-06T04:48:39.265Z,9.70
2018-11-06T04:49:41.469Z,9.70
2018-11-06T04:50:43.627Z,9.70
2018-11-06T04:51:45.849Z,9.70
2018-11-06T04:52:48.044Z,9.80
2018-11-06T04:53:53.698Z,9.70
2018-11-06T04:54:55.902Z,9.70
2018-11-06T04:55:58.114Z,9.70
2018-11-06T04:57:00.351Z,9.70
2018-11-06T04:58:02.588Z,9.70
2018-11-06T04:59:05.242Z,9.70
2018-11-06T05:00:09.394Z,9.70
2018-11-06T05:01:11.606Z,9.70
2018-11-06T05:02:13.902Z,9.70
2018-11-06T05:03:16.004Z,9.70
2018-11-06T05:04:18.203Z,9.70
2018-11-06T05:05:20.408Z,9.70
2018-11-06T05:06:22.595Z,9.70
2018-11-06T05:07:24.841Z,9.70
2018-11-06T05:08:27.000Z,9.70
2018-11-06T05:09:29.204Z,9.70
2018-11-06T05:10:31.472Z,9.70
2018-11-06T05:11:33.710Z,9.70
2018-11-06T05:12:35.914Z,9.70
2018-11-06T05:13:38.088Z,9.70
2018-11-06T05:14:40.284Z,9.70
2018-11-06T05:15:42.498Z,9.70
2018-11-06T05:16:44.709Z,9.70
2018-11-06T05:17:46.925Z,9.70
2018-11-06T05:18:49.201Z,9.70
2018-11-06T05:19:51.366Z,9.70
2018-11-06T05:20:53.618Z,9.70
2018-11-06T05:21:55.790Z,9.70
2018-11-06T05:22:58.028Z,9.70
2018-11-06T05:24:00.273Z,9.70
2018-11-06T05:25:02.542Z,9.70
2018-11-06T05:26:05.197Z,9.70
2018-11-06T05:27:07.386Z,9.70
2018-11-06T05:28:09.601Z,9.70
2018-11-06T05:29:11.794Z,9.70
2018-11-06T05:30:13.995Z,9.70
2018-11-06T05:31:16.301Z,9.70
2018-11-06T05:32:18.482Z,9.50
2018-11-06T05:33:20.730Z,9.60
2018-11-06T05:34:22.977Z,9.60
2018-11-06T05:35:25.155Z,9.60
2018-11-06T05:36:27.869Z,9.60
2018-11-06T05:37:30.420Z,9.60
2018-11-06T05:38:32.658Z,9.60
2018-11-06T05:39:37.759Z,9.60
2018-11-06T05:40:55.745Z,9.50
2018-11-06T05:41:57.905Z,9.50
2018-11-06T05:43:00.145Z,9.50
2018-11-06T05:44:02.390Z,9.50
2018-11-06T05:45:04.792Z,9.40
2018-11-06T05:46:06.987Z,9.40
2018-11-06T05:47:09.151Z,9.40
2018-11-06T05:48:11.336Z,9.40
2018-11-06T05:49:13.534Z,9.30
2018-11-06T05:50:15.729Z,9.30
2018-11-06T05:51:17.926Z,9.30
2018-11-06T05:52:20.400Z,9.30
2018-11-06T05:53:22.722Z,9.30
2018-11-06T05:54:24.885Z,9.30
2018-11-06T05:55:27.077Z,9.30
2018-11-06T05:56:29.309Z,9.20
2018-11-06T05:57:31.482Z,9.20
2018-11-06T05:58:34.233Z,9.20
2018-11-06T05:59:36.389Z,9.20
2018-11-06T06:00:38.931Z,9.20
2018-11-06T06:01:41.127Z,9.30
2018-11-06T06:02:43.320Z,9.20
2018-11-06T06:03:45.545Z,9.20
2018-11-06T06:04:47.736Z,9.20
2018-11-06T06:05:49.923Z,9.10
2018-11-06T06:06:52.122Z,9.10
2018-11-06T06:07:54.325Z,9.10
2018-11-06T06:08:56.518Z,9.10
2018-11-06T06:09:58.710Z,9.20
2018-11-06T06:11:00.978Z,9.10
2018-11-06T06:12:03.152Z,9.20
2018-11-06T06:13:05.834Z,9.20
2018-11-06T06:14:08.066Z,9.20
2018-11-06T06:15:10.614Z,9.30
2018-11-06T06:16:12.793Z,9.30
2018-11-06T06:17:15.043Z,9.30
2018-11-06T06:18:17.199Z,9.30
2018-11-06T06:19:19.442Z,9.30
2018-11-06T06:20:21.661Z,9.40
2018-11-06T06:21:23.822Z,9.40
2018-11-06T06:22:26.601Z,9.30
2018-11-06T06:23:28.762Z,9.30
2018-11-06T06:24:31.279Z,9.30
2018-11-06T06:25:33.474Z,9.30
2018-11-06T06:26:35.677Z,9.30
2018-11-06T06:27:37.908Z,9.30
2018-11-06T06:28:40.094Z,9.40
2018-11-06T06:29:42.310Z,9.40
2018-11-06T06:30:44.565Z,9.40
2018-11-06T06:31:46.793Z,9.40
2018-11-06T06:32:49.033Z,9.40
2018-11-06T06:33:51.204Z,9.40
2018-11-06T06:34:53.429Z,9.40
2018-11-06T06:35:55.583Z,9.30
2018-11-06T06:36:57.771Z,9.30
2018-11-06T06:37:59.962Z,9.30
2018-11-06T06:39:04.342Z,9.30
2018-11-06T06:40:10.399Z,9.40
2018-11-06T06:41:12.522Z,9.40
2018-11-06T06:42:14.714Z,9.40
2018-11-06T06:43:16.982Z,9.30
2018-11-06T06:44:19.235Z,9.30
2018-11-06T06:45:21.433Z,9.30
2018-11-06T06:46:23.754Z,9.20
2018-11-06T06:47:26.292Z,9.00
2018-11-06T06:48:28.517Z,9.10
2018-11-06T06:49:30.749Z,9.10
2018-11-06T06:50:32.948Z,9.10
2018-11-06T06:51:35.207Z,9.10
2018-11-06T06:52:38.194Z,9.10
2018-11-06T06:53:40.443Z,9.20
2018-11-06T06:54:43.586Z,9.20
2018-11-06T06:55:45.849Z,9.20
2018-11-06T06:56:48.060Z,9.30
2018-11-06T06:57:50.303Z,9.30
2018-11-06T06:58:52.973Z,9.30
2018-11-06T06:59:55.180Z,9.30
2018-11-06T07:00:57.405Z,9.30
2018-11-06T07:01:59.652Z,9.30
2018-11-06T07:03:01.842Z,9.30
2018-11-06T07:04:04.197Z,9.30
2018-11-06T07:05:07.846Z,9.30
2018-11-06T07:06:10.069Z,9.30
2018-11-06T07:07:12.306Z,9.30
2018-11-06T07:08:14.483Z,9.40
2018-11-06T07:09:16.681Z,9.40
2018-11-06T07:10:20.281Z,9.40
2018-11-06T07:11:22.498Z,9.40
2018-11-06T07:12:24.761Z,9.40
2018-11-06T07:13:26.966Z,9.50
2018-11-06T07:14:29.235Z,9.50
2018-11-06T07:15:31.466Z,9.50
2018-11-06T07:16:33.710Z,9.50
2018-11-06T07:17:36.109Z,9.50
2018-11-06T07:18:38.352Z,9.60
2018-11-06T07:19:40.596Z,9.60
2018-11-06T07:20:42.799Z,9.60
2018-11-06T07:21:44.970Z,9.60
2018-11-06T07:22:47.209Z,9.60
2018-11-06T07:23:49.393Z,9.60
2018-11-06T07:24:51.605Z,9.60
2018-11-06T07:25:53.809Z,9.60
2018-11-06T07:26:56.022Z,9.50
2018-11-06T07:27:58.219Z,9.50
2018-11-06T07:29:00.477Z,9.50
2018-11-06T07:30:02.750Z,9.50
2018-11-06T07:31:05.796Z,9.40
2018-11-06T07:32:08.019Z,9.40
2018-11-06T07:33:10.245Z,9.30
2018-11-06T07:34:12.465Z,9.30
2018-11-06T07:35:15.593Z,9.30
2018-11-06T07:36:17.761Z,9.30
2018-11-06T07:37:20.149Z,9.30
2018-11-06T07:38:22.356Z,9.30
2018-11-06T07:39:24.606Z,9.30
2018-11-06T07:40:26.818Z,9.30
2018-11-06T07:41:29.599Z,9.40
2018-11-06T07:42:31.855Z,9.40
2018-11-06T07:43:34.077Z,9.50
2018-11-06T07:44:36.333Z,9.50
2018-11-06T07:45:38.535Z,9.50
2018-11-06T07:46:40.774Z,9.40
2018-11-06T07:47:43.222Z,9.50
2018-11-06T07:48:45.532Z,9.50
2018-11-06T07:49:47.872Z,9.60
2018-11-06T07:50:50.065Z,9.60
2018-11-06T07:51:52.281Z,9.70
2018-11-06T07:52:54.484Z,9.70
2018-11-06T07:53:56.719Z,9.60
2018-11-06T07:54:58.949Z,9.60
2018-11-06T07:56:01.190Z,9.60
2018-11-06T07:57:03.434Z,9.70
2018-11-06T07:58:05.668Z,9.70
2018-11-06T07:59:08.448Z,9.70
2018-11-06T08:00:15.027Z,9.70
2018-11-06T08:01:17.289Z,9.80
2018-11-06T08:02:19.463Z,9.80
2018-11-06T08:03:21.662Z,9.80
2018-11-06T08:04:26.004Z,9.80
2018-11-06T08:05:28.207Z,9.90
2018-11-06T08:06:30.588Z,9.90
2018-11-06T08:07:32.849Z,9.90
2018-11-06T08:08:35.134Z,10.00
2018-11-06T08:09:37.709Z,10.00
2018-11-06T08:10:39.768Z,10.10
2018-11-06T08:11:41.993Z,10.10
2018-11-06T08:12:45.888Z,10.20
2018-11-06T08:13:48.079Z,10.30
2018-11-06T08:14:50.298Z,10.30
2018-11-06T08:15:52.801Z,10.30
2018-11-06T08:16:55.010Z,10.30
2018-11-06T08:17:57.230Z,10.30
2018-11-06T08:18:59.452Z,10.40
2018-11-06T08:20:01.690Z,10.20
2018-11-06T08:21:04.019Z,10.40
2018-11-06T08:22:06.413Z,10.40
2018-11-06T08:23:08.669Z,10.40
2018-11-06T08:24:10.932Z,10.40
2018-11-06T08:25:14.266Z,10.40
2018-11-06T08:26:16.528Z,10.40
2018-11-06T08:27:19.057Z,10.40
2018-11-06T08:28:21.453Z,10.40
2018-11-06T08:29:23.778Z,10.40
2018-11-06T08:30:28.567Z,10.40
2018-11-06T08:31:35.804Z,10.40
2018-11-06T08:32:37.988Z,10.50
2018-11-06T08:33:40.354Z,10.50
2018-11-06T08:34:43.350Z,10.60
2018-11-06T08:35:45.882Z,10.80
2018-11-06T08:36:48.163Z,10.60
2018-11-06T08:37:50.400Z,10.70
2018-11-06T08:38:52.590Z,10.70
2018-11-06T08:39:54.783Z,10.70
2018-11-06T08:40:57.013Z,10.70
2018-11-06T08:41:59.206Z,10.80
2018-11-06T08:43:01.510Z,10.90
2018-11-06T08:44:03.731Z,10.90
2018-11-06T08:45:07.458Z,11.00
2018-11-06T08:46:09.713Z,11.00
2018-11-06T08:47:11.956Z,11.10
2018-11-06T08:48:14.357Z,11.10
2018-11-06T08:49:17.093Z,11.20
2018-11-06T08:50:19.680Z,11.30
2018-11-06T08:51:21.930Z,11.30
2018-11-06T08:52:24.182Z,11.30
2018-11-06T08:53:26.340Z,11.40
2018-11-06T08:54:28.632Z,11.40
2018-11-06T08:55:30.910Z,11.40
2018-11-06T08:56:34.280Z,11.40
2018-11-06T08:57:36.501Z,11.40
2018-11-06T08:58:38.713Z,11.40
2018-11-06T08:59:41.114Z,11.50
2018-11-06T09:00:43.388Z,11.50
2018-11-06T09:01:45.589Z,11.50
2018-11-06T09:02:48.753Z,11.50
2018-11-06T09:03:50.926Z,11.50
2018-11-06T09:04:53.085Z,11.50
2018-11-06T09:05:55.245Z,11.50
2018-11-06T09:06:58.021Z,11.50
2018-11-06T09:08:00.265Z,11.60
2018-11-06T09:09:02.716Z,11.60
2018-11-06T09:10:06.129Z,11.70
2018-11-06T09:11:08.346Z,11.70
2018-11-06T09:12:10.563Z,11.80
2018-11-06T09:13:12.719Z,11.80
2018-11-06T09:14:14.899Z,11.80
2018-11-06T09:15:17.170Z,11.90
2018-11-06T09:16:19.367Z,11.90
2018-11-06T09:17:21.526Z,12.00
2018-11-06T09:18:23.704Z,12.00
2018-11-06T09:19:25.866Z,11.90
2018-11-06T09:20:28.182Z,12.00
2018-11-06T09:21:30.467Z,12.00
2018-11-06T09:22:32.656Z,12.00
2018-11-06T09:23:40.830Z,12.10
2018-11-06T09:24:43.169Z,12.00
2018-11-06T09:25:45.410Z,12.00
2018-11-06T09:26:47.852Z,12.00
2018-11-06T09:27:50.094Z,12.00
2018-11-06T09:28:52.409Z,11.90
2018-11-06T09:29:54.708Z,11.90
2018-11-06T09:30:57.105Z,11.90
2018-11-06T09:31:59.282Z,11.90
2018-11-06T09:33:01.518Z,11.90
2018-11-06T09:34:03.844Z,11.90
2018-11-06T09:35:07.063Z,11.90
2018-11-06T09:36:09.382Z,11.90
2018-11-06T09:37:11.605Z,12.00
2018-11-06T09:38:13.811Z,12.00
2018-11-06T09:39:16.042Z,12.00
2018-11-06T09:40:19.044Z,12.00
2018-11-06T09:41:21.281Z,12.00
2018-11-06T09:42:23.494Z,12.00
2018-11-06T09:43:25.776Z,12.00
2018-11-06T09:44:28.017Z,12.00
2018-11-06T09:45:30.927Z,12.10
2018-11-06T09:46:33.399Z,12.10
2018-11-06T09:47:36.096Z,12.10
2018-11-06T09:48:38.354Z,12.10
2018-11-06T09:49:40.608Z,12.20
2018-11-06T09:50:42.806Z,12.20
2018-11-06T09:51:45.026Z,12.20
2018-11-06T09:52:47.773Z,12.20
2018-11-06T09:53:50.144Z,12.10
2018-11-06T09:54:52.441Z,12.30
2018-11-06T09:55:54.673Z,12.30
2018-11-06T09:56:57.114Z,12.30
2018-11-06T09:57:59.352Z,12.40
2018-11-06T09:59:01.638Z,12.40
2018-11-06T10:00:08.135Z,12.40
2018-11-06T10:01:10.583Z,12.40
2018-11-06T10:02:12.837Z,12.40
2018-11-06T10:03:15.098Z,12.40
2018-11-06T10:04:17.290Z,12.40
2018-11-06T10:05:19.525Z,12.50
2018-11-06T10:06:21.831Z,12.50
2018-11-06T10:07:24.119Z,12.60
2018-11-06T10:08:26.159Z,12.60
2018-11-06T10:09:28.354Z,12.50
2018-11-06T10:10:30.565Z,12.60
2018-11-06T10:11:32.782Z,12.60
2018-11-06T10:12:35.969Z,12.70
2018-11-06T10:13:38.213Z,12.70
2018-11-06T10:14:40.427Z,12.70
2018-11-06T10:15:42.706Z,12.80
2018-11-06T10:16:44.897Z,12.80
2018-11-06T10:17:48.071Z,12.90
2018-11-06T10:18:57.061Z,12.90
2018-11-06T10:19:59.317Z,12.90
2018-11-06T10:21:01.857Z,12.90
2018-11-06T10:22:04.300Z,13.00
2018-11-06T10:23:06.504Z,13.00
2018-11-06T10:24:08.686Z,13.00
2018-11-06T10:25:10.902Z,13.00
2018-11-06T10:26:13.101Z,13.00
2018-11-06T10:27:15.374Z,13.00
2018-11-06T10:28:17.546Z,13.00
2018-11-06T10:29:19.822Z,13.00
2018-11-06T10:30:22.707Z,13.10
2018-11-06T10:31:25.176Z,13.10
2018-11-06T10:32:27.593Z,13.10
2018-11-06T10:33:29.836Z,13.10
2018-11-06T10:34:32.063Z,13.20
2018-11-06T10:35:34.304Z,13.20
2018-11-06T10:36:36.570Z,13.30
2018-11-06T10:37:38.829Z,13.30
2018-11-06T10:38:41.065Z,13.40
2018-11-06T10:39:43.278Z,13.40
2018-11-06T10:40:45.566Z,13.50
2018-11-06T10:41:47.797Z,13.50
2018-11-06T10:42:50.502Z,13.50
2018-11-06T10:43:52.773Z,13.60
2018-11-06T10:44:55.092Z,13.50
2018-11-06T10:45:57.348Z,13.70
2018-11-06T10:46:59.561Z,13.70
2018-11-06T10:48:01.777Z,13.70
2018-11-06T10:49:04.305Z,13.70
2018-11-06T10:50:07.965Z,13.70
2018-11-06T10:51:10.237Z,13.70
2018-11-06T10:52:12.469Z,13.80
2018-11-06T10:53:14.762Z,13.80
2018-11-06T10:54:16.977Z,14.00
2018-11-06T10:55:19.325Z,13.80
2018-11-06T10:56:21.562Z,13.90
2018-11-06T10:57:23.785Z,13.90
2018-11-06T10:58:26.104Z,13.90
2018-11-06T10:59:28.342Z,13.90
2018-11-06T11:00:36.237Z,13.90
2018-11-06T11:01:44.077Z,13.90
2018-11-06T11:02:52.056Z,14.00
2018-11-06T11:03:59.889Z,14.00
2018-11-06T11:05:02.210Z,14.00
2018-11-06T11:06:04.469Z,14.10
2018-11-06T11:07:06.670Z,14.10
2018-11-06T11:08:09.588Z,14.10
2018-11-06T11:09:11.802Z,14.10
2018-11-06T11:10:14.062Z,14.10
2018-11-06T11:11:16.333Z,14.30
2018-11-06T11:12:18.544Z,14.20
2018-11-06T11:13:20.745Z,14.00
2018-11-06T11:14:22.951Z,14.20
2018-11-06T11:15:25.146Z,14.30
2018-11-06T11:16:27.425Z,14.20
2018-11-06T11:17:29.865Z,14.30
2018-11-06T11:18:32.093Z,14.30
2018-11-06T11:19:34.308Z,14.40
2018-11-06T11:20:36.981Z,14.40
2018-11-06T11:21:39.295Z,14.40
2018-11-06T11:22:41.867Z,14.40
2018-11-06T11:23:44.141Z,14.50
2018-11-06T11:24:46.401Z,14.40
2018-11-06T11:25:48.757Z,14.40
2018-11-06T11:26:50.945Z,14.40
2018-11-06T11:27:53.225Z,14.40
2018-11-06T11:28:55.439Z,14.50
2018-11-06T11:29:57.612Z,14.40
2018-11-06T11:30:59.837Z,14.50
2018-11-06T11:32:02.098Z,14.50
2018-11-06T11:33:04.580Z,14.50
2018-11-06T11:34:06.779Z,14.60
2018-11-06T11:35:08.993Z,14.50
2018-11-06T11:36:11.480Z,14.50
2018-11-06T11:37:13.785Z,14.60
2018-11-06T11:38:15.933Z,14.60
2018-11-06T11:39:18.102Z,14.60
2018-11-06T11:40:20.357Z,14.60
2018-11-06T11:41:22.521Z,14.60
2018-11-06T11:42:24.717Z,14.60
2018-11-06T11:43:26.929Z,14.60
2018-11-06T11:44:29.174Z,14.60
2018-11-06T11:45:31.385Z,14.50
2018-11-06T11:46:33.593Z,14.60
2018-11-06T11:47:35.779Z,14.60
2018-11-06T11:48:38.007Z,14.60
2018-11-06T11:49:40.216Z,14.80
2018-11-06T11:50:42.432Z,14.70
2018-11-06T11:51:44.725Z,14.70
2018-11-06T11:52:46.932Z,14.70
2018-11-06T11:53:49.102Z,14.70
2018-11-06T11:54:51.354Z,14.80
2018-11-06T11:55:53.629Z,14.70
2018-11-06T11:56:55.870Z,14.80
2018-11-06T11:57:58.031Z,14.80
2018-11-06T11:59:00.189Z,14.90
2018-11-06T12:00:02.430Z,14.90
2018-11-06T12:01:04.707Z,14.90
2018-11-06T12:02:06.916Z,15.00
2018-11-06T12:03:09.108Z,15.00
2018-11-06T12:04:11.664Z,15.10
2018-11-06T12:05:13.843Z,15.10
2018-11-06T12:06:16.037Z,15.10
2018-11-06T12:07:18.216Z,15.10
2018-11-06T12:08:20.391Z,15.20
2018-11-06T12:09:22.601Z,15.30
2018-11-06T12:10:24.789Z,15.20
2018-11-06T12:11:27.516Z,15.30
2018-11-06T12:12:29.765Z,15.30
2018-11-06T12:13:31.985Z,15.30
2018-11-06T12:14:34.297Z,15.30
2018-11-06T12:15:36.488Z,15.30
2018-11-06T12:16:38.666Z,15.30
2018-11-06T12:17:41.590Z,15.30
2018-11-06T12:18:43.783Z,15.30
2018-11-06T12:19:45.941Z,15.40
2018-11-06T12:20:48.097Z,15.40
2018-11-06T12:21:50.327Z,15.40
2018-11-06T12:22:52.532Z,15.50
2018-11-06T12:23:54.778Z,15.50
2018-11-06T12:24:56.992Z,15.50
2018-11-06T12:25:59.087Z,15.60
2018-11-06T12:27:01.249Z,15.60
2018-11-06T12:28:03.510Z,15.60
2018-11-06T12:29:05.926Z,15.70
2018-11-06T12:30:10.181Z,15.70
2018-11-06T12:31:12.381Z,15.70
2018-11-06T12:32:14.613Z,15.80
2018-11-06T12:33:16.834Z,15.80
2018-11-06T12:34:19.057Z,15.80
2018-11-06T12:35:21.275Z,15.80
2018-11-06T12:36:23.502Z,15.80
2018-11-06T12:37:25.704Z,15.90
2018-11-06T12:38:27.907Z,15.90
2018-11-06T12:39:30.074Z,15.90
2018-11-06T12:40:32.245Z,16.00
2018-11-06T12:41:34.437Z,16.00
2018-11-06T12:42:37.335Z,15.90
2018-11-06T12:43:39.663Z,16.00
2018-11-06T12:44:42.359Z,16.00
2018-11-06T12:45:44.527Z,16.10
2018-11-06T12:46:46.729Z,16.10
2018-11-06T12:47:48.927Z,16.10
2018-11-06T12:48:57.869Z,16.10
2018-11-06T12:50:05.924Z,16.30
2018-11-06T12:51:08.622Z,16.20
2018-11-06T12:52:10.803Z,16.20
2018-11-06T12:53:13.115Z,16.20
2018-11-06T12:54:15.346Z,16.20
2018-11-06T12:55:17.567Z,16.20
2018-11-06T12:56:19.838Z,16.20
2018-11-06T12:57:22.055Z,16.30
2018-11-06T12:58:24.281Z,16.20
2018-11-06T12:59:26.440Z,16.30
2018-11-06T13:00:28.656Z,16.30
2018-11-06T13:01:30.905Z,16.40
2018-11-06T13:02:33.102Z,16.40
2018-11-06T13:03:35.377Z,16.40
2018-11-06T13:04:37.534Z,16.60
2018-11-06T13:05:39.819Z,16.40
2018-11-06T13:06:42.321Z,16.40
2018-11-06T13:07:45.200Z,16.40
2018-11-06T13:08:47.498Z,16.50
2018-11-06T13:09:49.771Z,16.60
2018-11-06T13:10:52.029Z,16.60
2018-11-06T13:11:54.229Z,16.50
2018-11-06T13:12:56.981Z,16.50
2018-11-06T13:13:59.170Z,16.50
2018-11-06T13:15:01.370Z,16.50
2018-11-06T13:16:03.745Z,16.50
2018-11-06T13:17:06.064Z,16.60
2018-11-06T13:18:08.201Z,16.60
2018-11-06T13:19:10.442Z,16.60
2018-11-06T13:20:14.661Z,16.60
2018-11-06T13:21:16.904Z,16.60
2018-11-06T13:22:19.972Z,16.60
2018-11-06T13:23:22.282Z,16.60
2018-11-06T13:24:24.702Z,16.60
2018-11-06T13:25:26.944Z,16.60
2018-11-06T13:26:29.544Z,16.60
2018-11-06T13:27:31.873Z,16.70
2018-11-06T13:28:34.087Z,16.60
2018-11-06T13:29:36.308Z,16.80
2018-11-06T13:30:38.538Z,16.70
2018-11-06T13:31:40.718Z,16.70